sensor_id;sensor_type;location;lat;lon;timestamp;P1;durP1;ratioP1;P2;durP2;ratioP2
11541;SDS011;5827;49.482;7.716;2022-11-15T00:01:14;10.10;;;5.80;;
11541;SDS011;5827;49.482;7.716;2022-11-15T00:03:17;6.77;;;5.90;;
11541;SDS011;5827;49.482;7.716;2022-11-15T00:05:19;6.20;;;5.33;;
11541;SDS011;5827;49.482;7.716;2022-11-15T00:07:21;6.73;;;5.60;;
11541;SDS011;5827;49.482;7.716;2022-11-15T00:09:24;6.63;;;5.10;;
11541;SDS011;5827;49.482;7.716;2022-11-15T00:11:25;6.20;;;4.80;;
11541;SDS011;5827;49.482;7.716;2022-11-15T00:13:27;9.27;;;5.80;;
11541;SDS011;5827;49.482;7.716;2022-11-15T00:15:30;7.80;;;6.03;;
11541;SDS011;5827;49.482;7.716;2022-11-15T00:17:31;7.10;;;5.83;;
11541;SDS011;5827;49.482;7.716;2022-11-15T00:19:33;6.60;;;5.43;;
11541;SDS011;5827;49.482;7.716;2022-11-15T00:21:34;6.43;;;5.63;;
11541;SDS011;5827;49.482;7.716;2022-11-15T00:23:36;6.93;;;6.17;;
11541;SDS011;5827;49.482;7.716;2022-11-15T00:25:39;8.43;;;6.40;;
11541;SDS011;5827;49.482;7.716;2022-11-15T00:27:41;7.07;;;6.37;;
11541;SDS011;5827;49.482;7.716;2022-11-15T00:29:42;11.30;;;5.67;;
11541;SDS011;5827;49.482;7.716;2022-11-15T00:31:44;6.73;;;5.80;;
11541;SDS011;5827;49.482;7.716;2022-11-15T00:33:45;6.23;;;5.63;;
11541;SDS011;5827;49.482;7.716;2022-11-15T00:35:47;6.03;;;5.37;;
11541;SDS011;5827;49.482;7.716;2022-11-15T00:37:48;9.77;;;6.43;;
11541;SDS011;5827;49.482;7.716;2022-11-15T00:39:50;7.93;;;7.00;;
11541;SDS011;5827;49.482;7.716;2022-11-15T00:41:53;7.57;;;6.80;;
11541;SDS011;5827;49.482;7.716;2022-11-15T00:43:54;9.00;;;7.57;;
11541;SDS011;5827;49.482;7.716;2022-11-15T00:45:56;9.13;;;7.57;;
11541;SDS011;5827;49.482;7.716;2022-11-15T00:47:58;10.17;;;7.90;;
11541;SDS011;5827;49.482;7.716;2022-11-15T00:49:59;8.73;;;7.10;;
11541;SDS011;5827;49.482;7.716;2022-11-15T00:52:01;7.33;;;6.53;;
11541;SDS011;5827;49.482;7.716;2022-11-15T00:54:02;9.33;;;6.20;;
11541;SDS011;5827;49.482;7.716;2022-11-15T00:56:04;8.50;;;6.20;;
11541;SDS011;5827;49.482;7.716;2022-11-15T00:58:08;7.33;;;5.97;;
11541;SDS011;5827;49.482;7.716;2022-11-15T01:00:11;8.73;;;5.53;;
11541;SDS011;5827;49.482;7.716;2022-11-15T01:02:13;6.10;;;5.53;;
11541;SDS011;5827;49.482;7.716;2022-11-15T01:04:14;6.43;;;5.50;;
11541;SDS011;5827;49.482;7.716;2022-11-15T01:06:16;8.93;;;6.00;;
11541;SDS011;5827;49.482;7.716;2022-11-15T01:08:17;9.77;;;5.67;;
11541;SDS011;5827;49.482;7.716;2022-11-15T01:10:19;6.87;;;5.67;;
11541;SDS011;5827;49.482;7.716;2022-11-15T01:12:21;8.23;;;6.37;;
11541;SDS011;5827;49.482;7.716;2022-11-15T01:14:24;7.83;;;5.63;;
11541;SDS011;5827;49.482;7.716;2022-11-15T01:16:26;7.23;;;5.40;;
11541;SDS011;5827;49.482;7.716;2022-11-15T01:18:27;6.17;;;5.50;;
11541;SDS011;5827;49.482;7.716;2022-11-15T01:20:29;7.07;;;5.43;;
11541;SDS011;5827;49.482;7.716;2022-11-15T01:22:30;7.17;;;5.07;;
11541;SDS011;5827;49.482;7.716;2022-11-15T01:24:32;6.33;;;5.20;;
11541;SDS011;5827;49.482;7.716;2022-11-15T01:26:33;5.50;;;4.77;;
11541;SDS011;5827;49.482;7.716;2022-11-15T01:28:35;6.73;;;5.47;;
11541;SDS011;5827;49.482;7.716;2022-11-15T01:30:40;5.57;;;5.07;;
11541;SDS011;5827;49.482;7.716;2022-11-15T01:32:42;6.73;;;5.20;;
11541;SDS011;5827;49.482;7.716;2022-11-15T01:34:43;9.17;;;5.37;;
11541;SDS011;5827;49.482;7.716;2022-11-15T01:36:45;5.77;;;5.20;;
11541;SDS011;5827;49.482;7.716;2022-11-15T01:38:47;6.33;;;4.90;;
11541;SDS011;5827;49.482;7.716;2022-11-15T01:40:54;7.13;;;5.17;;
11541;SDS011;5827;49.482;7.716;2022-11-15T01:42:56;5.73;;;5.13;;
11541;SDS011;5827;49.482;7.716;2022-11-15T01:44:57;5.60;;;4.93;;
11541;SDS011;5827;49.482;7.716;2022-11-15T01:47:00;5.53;;;4.83;;
11541;SDS011;5827;49.482;7.716;2022-11-15T01:49:05;6.30;;;5.07;;
11541;SDS011;5827;49.482;7.716;2022-11-15T01:51:14;7.90;;;4.93;;
11541;SDS011;5827;49.482;7.716;2022-11-15T01:53:19;5.60;;;5.10;;
11541;SDS011;5827;49.482;7.716;2022-11-15T01:55:24;6.77;;;4.50;;
11541;SDS011;5827;49.482;7.716;2022-11-15T01:57:28;7.00;;;4.73;;
11541;SDS011;5827;49.482;7.716;2022-11-15T01:59:30;5.30;;;4.67;;
11541;SDS011;5827;49.482;7.716;2022-11-15T02:01:32;7.40;;;5.23;;
11541;SDS011;5827;49.482;7.716;2022-11-15T02:03:38;6.07;;;4.70;;
11541;SDS011;5827;49.482;7.716;2022-11-15T02:05:45;6.43;;;4.70;;
11541;SDS011;5827;49.482;7.716;2022-11-15T02:07:46;4.77;;;4.23;;
11541;SDS011;5827;49.482;7.716;2022-11-15T02:09:49;5.30;;;4.80;;
11541;SDS011;5827;49.482;7.716;2022-11-15T02:11:51;4.70;;;4.23;;
11541;SDS011;5827;49.482;7.716;2022-11-15T02:13:55;5.03;;;4.20;;
11541;SDS011;5827;49.482;7.716;2022-11-15T02:15:59;5.97;;;4.67;;
11541;SDS011;5827;49.482;7.716;2022-11-15T02:18:14;5.33;;;4.60;;
11541;SDS011;5827;49.482;7.716;2022-11-15T02:20:30;7.47;;;4.73;;
11541;SDS011;5827;49.482;7.716;2022-11-15T02:22:51;4.90;;;4.40;;
11541;SDS011;5827;49.482;7.716;2022-11-15T02:25:18;5.27;;;4.53;;
11541;SDS011;5827;49.482;7.716;2022-11-15T02:30:19;5.67;;;4.83;;
11541;SDS011;5827;49.482;7.716;2022-11-15T02:32:23;5.93;;;4.43;;
11541;SDS011;5827;49.482;7.716;2022-11-15T02:34:35;5.20;;;4.30;;
11541;SDS011;5827;49.482;7.716;2022-11-15T02:36:47;5.40;;;4.30;;
11541;SDS011;5827;49.482;7.716;2022-11-15T02:39:03;4.73;;;4.00;;
11541;SDS011;5827;49.482;7.716;2022-11-15T02:41:13;6.27;;;4.87;;
11541;SDS011;5827;49.482;7.716;2022-11-15T02:43:18;6.33;;;4.17;;
11541;SDS011;5827;49.482;7.716;2022-11-15T02:45:48;5.10;;;4.37;;
11541;SDS011;5827;49.482;7.716;2022-11-15T02:47:54;5.03;;;4.57;;
11541;SDS011;5827;49.482;7.716;2022-11-15T02:49:57;5.83;;;4.27;;
11541;SDS011;5827;49.482;7.716;2022-11-15T02:52:02;5.07;;;4.33;;
11541;SDS011;5827;49.482;7.716;2022-11-15T02:54:03;8.80;;;4.23;;
11541;SDS011;5827;49.482;7.716;2022-11-15T02:56:07;4.73;;;4.23;;
11541;SDS011;5827;49.482;7.716;2022-11-15T02:58:19;4.50;;;4.03;;
11541;SDS011;5827;49.482;7.716;2022-11-15T03:00:34;5.67;;;4.20;;
11541;SDS011;5827;49.482;7.716;2022-11-15T03:05:18;5.03;;;4.30;;
11541;SDS011;5827;49.482;7.716;2022-11-15T03:07:25;5.10;;;4.33;;
11541;SDS011;5827;49.482;7.716;2022-11-15T03:09:32;5.60;;;4.80;;
11541;SDS011;5827;49.482;7.716;2022-11-15T03:11:37;5.60;;;5.00;;
11541;SDS011;5827;49.482;7.716;2022-11-15T03:13:43;5.40;;;4.80;;
11541;SDS011;5827;49.482;7.716;2022-11-15T03:15:54;4.87;;;4.37;;
11541;SDS011;5827;49.482;7.716;2022-11-15T03:18:04;5.33;;;4.73;;
11541;SDS011;5827;49.482;7.716;2022-11-15T03:20:13;7.30;;;4.93;;
11541;SDS011;5827;49.482;7.716;2022-11-15T03:22:18;6.37;;;5.00;;
11541;SDS011;5827;49.482;7.716;2022-11-15T03:24:23;4.80;;;4.30;;
11541;SDS011;5827;49.482;7.716;2022-11-15T03:26:27;5.30;;;4.73;;
11541;SDS011;5827;49.482;7.716;2022-11-15T03:28:32;4.90;;;4.40;;
11541;SDS011;5827;49.482;7.716;2022-11-15T03:30:37;6.50;;;4.80;;
11541;SDS011;5827;49.482;7.716;2022-11-15T03:32:43;6.17;;;4.63;;
11541;SDS011;5827;49.482;7.716;2022-11-15T03:34:49;5.37;;;4.87;;
11541;SDS011;5827;49.482;7.716;2022-11-15T03:36:55;5.57;;;4.70;;
11541;SDS011;5827;49.482;7.716;2022-11-15T03:38:58;6.23;;;4.50;;
11541;SDS011;5827;49.482;7.716;2022-11-15T03:41:04;8.27;;;5.20;;
11541;SDS011;5827;49.482;7.716;2022-11-15T03:43:11;4.67;;;4.20;;
11541;SDS011;5827;49.482;7.716;2022-11-15T03:45:22;5.70;;;4.30;;
11541;SDS011;5827;49.482;7.716;2022-11-15T03:47:29;4.80;;;4.30;;
11541;SDS011;5827;49.482;7.716;2022-11-15T03:49:34;4.57;;;4.17;;
11541;SDS011;5827;49.482;7.716;2022-11-15T03:51:39;5.30;;;4.50;;
11541;SDS011;5827;49.482;7.716;2022-11-15T03:53:42;5.10;;;4.53;;
11541;SDS011;5827;49.482;7.716;2022-11-15T03:55:44;9.03;;;4.60;;
11541;SDS011;5827;49.482;7.716;2022-11-15T03:57:46;6.47;;;4.23;;
11541;SDS011;5827;49.482;7.716;2022-11-15T03:59:49;4.47;;;3.87;;
11541;SDS011;5827;49.482;7.716;2022-11-15T04:01:50;4.70;;;4.30;;
11541;SDS011;5827;49.482;7.716;2022-11-15T04:03:52;4.67;;;4.17;;
11541;SDS011;5827;49.482;7.716;2022-11-15T04:05:53;4.97;;;3.97;;
11541;SDS011;5827;49.482;7.716;2022-11-15T04:07:55;5.63;;;4.00;;
11541;SDS011;5827;49.482;7.716;2022-11-15T04:09:58;4.30;;;3.90;;
11541;SDS011;5827;49.482;7.716;2022-11-15T04:12:06;5.13;;;4.27;;
11541;SDS011;5827;49.482;7.716;2022-11-15T04:14:07;4.50;;;4.10;;
11541;SDS011;5827;49.482;7.716;2022-11-15T04:16:09;4.77;;;4.17;;
11541;SDS011;5827;49.482;7.716;2022-11-15T04:18:10;5.17;;;3.83;;
11541;SDS011;5827;49.482;7.716;2022-11-15T04:20:13;4.80;;;4.13;;
11541;SDS011;5827;49.482;7.716;2022-11-15T04:22:33;4.33;;;3.90;;
11541;SDS011;5827;49.482;7.716;2022-11-15T04:24:52;4.40;;;4.00;;
11541;SDS011;5827;49.482;7.716;2022-11-15T04:26:55;4.67;;;4.27;;
11541;SDS011;5827;49.482;7.716;2022-11-15T04:28:57;5.30;;;4.67;;
11541;SDS011;5827;49.482;7.716;2022-11-15T04:31:16;4.83;;;4.10;;
11541;SDS011;5827;49.482;7.716;2022-11-15T04:33:17;4.33;;;3.97;;
11541;SDS011;5827;49.482;7.716;2022-11-15T04:35:19;4.60;;;4.20;;
11541;SDS011;5827;49.482;7.716;2022-11-15T04:37:20;5.10;;;4.27;;
11541;SDS011;5827;49.482;7.716;2022-11-15T04:39:21;4.53;;;3.70;;
11541;SDS011;5827;49.482;7.716;2022-11-15T04:41:22;5.03;;;3.87;;
11541;SDS011;5827;49.482;7.716;2022-11-15T04:43:25;5.20;;;3.73;;
11541;SDS011;5827;49.482;7.716;2022-11-15T04:45:27;4.73;;;3.70;;
11541;SDS011;5827;49.482;7.716;2022-11-15T04:47:28;4.70;;;3.47;;
11541;SDS011;5827;49.482;7.716;2022-11-15T04:49:30;4.10;;;3.70;;
11541;SDS011;5827;49.482;7.716;2022-11-15T04:51:32;4.17;;;3.77;;
11541;SDS011;5827;49.482;7.716;2022-11-15T04:53:33;4.37;;;3.73;;
11541;SDS011;5827;49.482;7.716;2022-11-15T04:55:35;5.03;;;4.07;;
11541;SDS011;5827;49.482;7.716;2022-11-15T04:57:36;4.77;;;3.77;;
11541;SDS011;5827;49.482;7.716;2022-11-15T04:59:41;4.53;;;4.13;;
11541;SDS011;5827;49.482;7.716;2022-11-15T05:01:42;4.77;;;4.20;;
11541;SDS011;5827;49.482;7.716;2022-11-15T05:03:44;4.77;;;4.10;;
11541;SDS011;5827;49.482;7.716;2022-11-15T05:06:03;4.03;;;3.60;;
11541;SDS011;5827;49.482;7.716;2022-11-15T05:08:05;5.20;;;4.20;;
11541;SDS011;5827;49.482;7.716;2022-11-15T05:10:08;4.73;;;3.70;;
11541;SDS011;5827;49.482;7.716;2022-11-15T05:12:10;4.13;;;3.70;;
11541;SDS011;5827;49.482;7.716;2022-11-15T05:14:11;4.70;;;4.27;;
11541;SDS011;5827;49.482;7.716;2022-11-15T05:16:14;4.90;;;3.70;;
11541;SDS011;5827;49.482;7.716;2022-11-15T05:18:16;4.87;;;3.60;;
11541;SDS011;5827;49.482;7.716;2022-11-15T05:20:17;3.80;;;3.40;;
11541;SDS011;5827;49.482;7.716;2022-11-15T05:22:19;4.50;;;3.87;;
11541;SDS011;5827;49.482;7.716;2022-11-15T05:24:20;5.43;;;4.57;;
11541;SDS011;5827;49.482;7.716;2022-11-15T05:26:22;6.47;;;3.97;;
11541;SDS011;5827;49.482;7.716;2022-11-15T05:28:23;4.90;;;3.90;;
11541;SDS011;5827;49.482;7.716;2022-11-15T05:30:25;5.20;;;3.70;;
11541;SDS011;5827;49.482;7.716;2022-11-15T05:32:28;4.73;;;3.90;;
11541;SDS011;5827;49.482;7.716;2022-11-15T05:34:30;3.60;;;3.30;;
11541;SDS011;5827;49.482;7.716;2022-11-15T05:36:33;4.17;;;3.77;;
11541;SDS011;5827;49.482;7.716;2022-11-15T05:38:37;4.63;;;4.23;;
11541;SDS011;5827;49.482;7.716;2022-11-15T05:40:39;4.57;;;4.17;;
11541;SDS011;5827;49.482;7.716;2022-11-15T05:42:41;6.60;;;5.87;;
11541;SDS011;5827;49.482;7.716;2022-11-15T05:44:43;5.47;;;4.70;;
11541;SDS011;5827;49.482;7.716;2022-11-15T05:46:48;7.23;;;5.47;;
11541;SDS011;5827;49.482;7.716;2022-11-15T05:48:54;6.30;;;5.33;;
11541;SDS011;5827;49.482;7.716;2022-11-15T05:50:57;7.13;;;5.63;;
11541;SDS011;5827;49.482;7.716;2022-11-15T05:53:00;6.07;;;5.27;;
11541;SDS011;5827;49.482;7.716;2022-11-15T05:55:02;6.07;;;5.20;;
11541;SDS011;5827;49.482;7.716;2022-11-15T05:57:06;7.63;;;5.70;;
11541;SDS011;5827;49.482;7.716;2022-11-15T05:59:08;9.23;;;6.20;;
11541;SDS011;5827;49.482;7.716;2022-11-15T06:01:11;6.50;;;5.77;;
11541;SDS011;5827;49.482;7.716;2022-11-15T06:03:13;9.33;;;8.13;;
11541;SDS011;5827;49.482;7.716;2022-11-15T06:05:16;12.10;;;9.00;;
11541;SDS011;5827;49.482;7.716;2022-11-15T06:07:18;12.57;;;10.13;;
11541;SDS011;5827;49.482;7.716;2022-11-15T06:09:19;14.10;;;9.37;;
11541;SDS011;5827;49.482;7.716;2022-11-15T06:11:21;10.23;;;8.27;;
11541;SDS011;5827;49.482;7.716;2022-11-15T06:13:22;10.23;;;8.27;;
11541;SDS011;5827;49.482;7.716;2022-11-15T06:15:24;12.17;;;8.80;;
11541;SDS011;5827;49.482;7.716;2022-11-15T06:17:25;7.90;;;7.10;;
11541;SDS011;5827;49.482;7.716;2022-11-15T06:19:27;8.40;;;7.60;;
11541;SDS011;5827;49.482;7.716;2022-11-15T06:21:34;9.80;;;7.60;;
11541;SDS011;5827;49.482;7.716;2022-11-15T06:23:35;9.33;;;7.60;;
11541;SDS011;5827;49.482;7.716;2022-11-15T06:25:37;10.60;;;8.60;;
11541;SDS011;5827;49.482;7.716;2022-11-15T06:27:38;11.07;;;9.23;;
11541;SDS011;5827;49.482;7.716;2022-11-15T06:29:40;11.47;;;8.10;;
11541;SDS011;5827;49.482;7.716;2022-11-15T06:31:41;10.07;;;8.67;;
11541;SDS011;5827;49.482;7.716;2022-11-15T06:33:43;11.27;;;8.77;;
11541;SDS011;5827;49.482;7.716;2022-11-15T06:35:44;9.40;;;8.17;;
11541;SDS011;5827;49.482;7.716;2022-11-15T06:37:47;9.70;;;7.60;;
11541;SDS011;5827;49.482;7.716;2022-11-15T06:39:49;8.50;;;7.60;;
11541;SDS011;5827;49.482;7.716;2022-11-15T06:41:50;8.77;;;7.90;;
11541;SDS011;5827;49.482;7.716;2022-11-15T06:43:52;9.77;;;8.57;;
11541;SDS011;5827;49.482;7.716;2022-11-15T06:45:53;10.50;;;8.33;;
11541;SDS011;5827;49.482;7.716;2022-11-15T06:47:55;9.53;;;8.00;;
11541;SDS011;5827;49.482;7.716;2022-11-15T06:49:56;10.23;;;8.23;;
11541;SDS011;5827;49.482;7.716;2022-11-15T06:51:58;9.53;;;8.20;;
11541;SDS011;5827;49.482;7.716;2022-11-15T06:54:01;7.53;;;6.83;;
11541;SDS011;5827;49.482;7.716;2022-11-15T06:56:03;8.93;;;6.90;;
11541;SDS011;5827;49.482;7.716;2022-11-15T06:58:06;8.23;;;7.43;;
11541;SDS011;5827;49.482;7.716;2022-11-15T07:00:08;8.93;;;6.77;;
11541;SDS011;5827;49.482;7.716;2022-11-15T07:02:11;6.87;;;6.27;;
11541;SDS011;5827;49.482;7.716;2022-11-15T07:04:13;9.80;;;6.50;;
11541;SDS011;5827;49.482;7.716;2022-11-15T07:06:15;7.73;;;7.03;;
11541;SDS011;5827;49.482;7.716;2022-11-15T07:08:16;6.53;;;5.87;;
11541;SDS011;5827;49.482;7.716;2022-11-15T07:10:20;8.10;;;6.10;;
11541;SDS011;5827;49.482;7.716;2022-11-15T07:12:24;6.93;;;6.30;;
11541;SDS011;5827;49.482;7.716;2022-11-15T07:14:25;6.53;;;5.93;;
11541;SDS011;5827;49.482;7.716;2022-11-15T07:16:27;7.50;;;6.70;;
11541;SDS011;5827;49.482;7.716;2022-11-15T07:18:28;6.60;;;6.00;;
11541;SDS011;5827;49.482;7.716;2022-11-15T07:20:30;6.63;;;5.57;;
11541;SDS011;5827;49.482;7.716;2022-11-15T07:22:31;6.03;;;5.30;;
11541;SDS011;5827;49.482;7.716;2022-11-15T07:24:33;6.20;;;5.57;;
11541;SDS011;5827;49.482;7.716;2022-11-15T07:26:36;5.80;;;5.20;;
11541;SDS011;5827;49.482;7.716;2022-11-15T07:28:37;5.23;;;4.40;;
11541;SDS011;5827;49.482;7.716;2022-11-15T07:30:39;5.10;;;4.60;;
11541;SDS011;5827;49.482;7.716;2022-11-15T07:32:40;5.50;;;4.87;;
11541;SDS011;5827;49.482;7.716;2022-11-15T07:34:42;6.17;;;4.90;;
11541;SDS011;5827;49.482;7.716;2022-11-15T07:36:45;5.97;;;5.47;;
11541;SDS011;5827;49.482;7.716;2022-11-15T07:38:46;6.97;;;6.27;;
11541;SDS011;5827;49.482;7.716;2022-11-15T07:40:55;9.83;;;7.43;;
11541;SDS011;5827;49.482;7.716;2022-11-15T07:43:03;7.83;;;7.00;;
11541;SDS011;5827;49.482;7.716;2022-11-15T07:45:05;7.67;;;6.47;;
11541;SDS011;5827;49.482;7.716;2022-11-15T07:47:07;7.50;;;6.27;;
11541;SDS011;5827;49.482;7.716;2022-11-15T07:49:09;7.40;;;5.53;;
11541;SDS011;5827;49.482;7.716;2022-11-15T07:51:11;7.03;;;6.33;;
11541;SDS011;5827;49.482;7.716;2022-11-15T07:53:14;8.43;;;7.30;;
11541;SDS011;5827;49.482;7.716;2022-11-15T07:55:15;9.27;;;8.20;;
11541;SDS011;5827;49.482;7.716;2022-11-15T07:57:17;9.10;;;8.20;;
11541;SDS011;5827;49.482;7.716;2022-11-15T07:59:20;11.30;;;8.17;;
11541;SDS011;5827;49.482;7.716;2022-11-15T08:01:21;8.50;;;7.27;;
11541;SDS011;5827;49.482;7.716;2022-11-15T08:03:23;8.23;;;7.23;;
11541;SDS011;5827;49.482;7.716;2022-11-15T08:05:24;7.33;;;6.63;;
11541;SDS011;5827;49.482;7.716;2022-11-15T08:07:28;8.27;;;6.47;;
11541;SDS011;5827;49.482;7.716;2022-11-15T08:09:30;8.00;;;7.03;;
11541;SDS011;5827;49.482;7.716;2022-11-15T08:11:31;9.60;;;7.70;;
11541;SDS011;5827;49.482;7.716;2022-11-15T08:13:33;9.03;;;7.23;;
11541;SDS011;5827;49.482;7.716;2022-11-15T08:15:37;11.53;;;8.10;;
11541;SDS011;5827;49.482;7.716;2022-11-15T08:17:39;10.43;;;7.60;;
11541;SDS011;5827;49.482;7.716;2022-11-15T08:19:40;11.07;;;8.10;;
11541;SDS011;5827;49.482;7.716;2022-11-15T08:21:42;12.03;;;8.67;;
11541;SDS011;5827;49.482;7.716;2022-11-15T08:23:43;10.33;;;7.83;;
11541;SDS011;5827;49.482;7.716;2022-11-15T08:25:45;8.63;;;7.30;;
11541;SDS011;5827;49.482;7.716;2022-11-15T08:27:46;10.17;;;7.67;;
11541;SDS011;5827;49.482;7.716;2022-11-15T08:29:48;10.37;;;8.20;;
11541;SDS011;5827;49.482;7.716;2022-11-15T08:31:51;11.40;;;8.80;;
11541;SDS011;5827;49.482;7.716;2022-11-15T08:33:55;13.00;;;9.57;;
11541;SDS011;5827;49.482;7.716;2022-11-15T08:35:57;11.23;;;9.30;;
11541;SDS011;5827;49.482;7.716;2022-11-15T08:37:59;11.23;;;7.43;;
11541;SDS011;5827;49.482;7.716;2022-11-15T08:40:01;9.00;;;7.00;;
11541;SDS011;5827;49.482;7.716;2022-11-15T08:42:02;10.83;;;6.47;;
11541;SDS011;5827;49.482;7.716;2022-11-15T08:44:04;7.13;;;6.30;;
11541;SDS011;5827;49.482;7.716;2022-11-15T08:46:07;8.27;;;6.50;;
11541;SDS011;5827;49.482;7.716;2022-11-15T08:48:13;7.57;;;6.27;;
11541;SDS011;5827;49.482;7.716;2022-11-15T08:50:15;7.53;;;6.17;;
11541;SDS011;5827;49.482;7.716;2022-11-15T08:52:17;7.93;;;6.67;;
11541;SDS011;5827;49.482;7.716;2022-11-15T08:54:18;6.27;;;5.67;;
11541;SDS011;5827;49.482;7.716;2022-11-15T08:56:20;8.60;;;6.30;;
11541;SDS011;5827;49.482;7.716;2022-11-15T08:58:21;8.73;;;6.27;;
11541;SDS011;5827;49.482;7.716;2022-11-15T09:00:23;7.90;;;7.10;;
11541;SDS011;5827;49.482;7.716;2022-11-15T09:02:24;7.27;;;5.90;;
11541;SDS011;5827;49.482;7.716;2022-11-15T09:04:27;6.73;;;5.97;;
11541;SDS011;5827;49.482;7.716;2022-11-15T09:06:29;7.13;;;6.43;;
11541;SDS011;5827;49.482;7.716;2022-11-15T09:08:30;6.83;;;6.23;;
11541;SDS011;5827;49.482;7.716;2022-11-15T09:10:32;7.37;;;6.33;;
11541;SDS011;5827;49.482;7.716;2022-11-15T09:12:33;7.33;;;6.53;;
11541;SDS011;5827;49.482;7.716;2022-11-15T09:14:35;8.27;;;6.40;;
11541;SDS011;5827;49.482;7.716;2022-11-15T09:16:36;7.93;;;6.83;;
11541;SDS011;5827;49.482;7.716;2022-11-15T09:18:38;9.87;;;7.80;;
11541;SDS011;5827;49.482;7.716;2022-11-15T09:20:41;10.07;;;9.07;;
11541;SDS011;5827;49.482;7.716;2022-11-15T09:22:42;9.90;;;8.87;;
11541;SDS011;5827;49.482;7.716;2022-11-15T09:24:44;10.17;;;8.17;;
11541;SDS011;5827;49.482;7.716;2022-11-15T09:26:46;8.60;;;7.70;;
11541;SDS011;5827;49.482;7.716;2022-11-15T09:28:48;8.67;;;7.67;;
11541;SDS011;5827;49.482;7.716;2022-11-15T09:30:49;9.80;;;6.33;;
11541;SDS011;5827;49.482;7.716;2022-11-15T09:32:51;7.97;;;6.87;;
11541;SDS011;5827;49.482;7.716;2022-11-15T09:34:52;8.17;;;6.43;;
11541;SDS011;5827;49.482;7.716;2022-11-15T09:36:55;7.70;;;5.90;;
11541;SDS011;5827;49.482;7.716;2022-11-15T09:38:57;5.13;;;4.57;;
11541;SDS011;5827;49.482;7.716;2022-11-15T09:41:08;4.43;;;3.70;;
11541;SDS011;5827;49.482;7.716;2022-11-15T09:43:32;6.07;;;4.07;;
11541;SDS011;5827;49.482;7.716;2022-11-15T09:45:41;4.97;;;3.60;;
11541;SDS011;5827;49.482;7.716;2022-11-15T09:47:56;3.57;;;3.20;;
11541;SDS011;5827;49.482;7.716;2022-11-15T09:50:30;4.70;;;3.80;;
11541;SDS011;5827;49.482;7.716;2022-11-15T09:52:37;4.83;;;3.43;;
11541;SDS011;5827;49.482;7.716;2022-11-15T09:54:45;4.70;;;3.67;;
11541;SDS011;5827;49.482;7.716;2022-11-15T09:56:50;6.33;;;3.90;;
11541;SDS011;5827;49.482;7.716;2022-11-15T09:58:55;4.07;;;3.67;;
11541;SDS011;5827;49.482;7.716;2022-11-15T10:01:07;4.10;;;3.70;;
11541;SDS011;5827;49.482;7.716;2022-11-15T10:03:13;6.30;;;3.97;;
11541;SDS011;5827;49.482;7.716;2022-11-15T10:05:19;5.23;;;3.63;;
11541;SDS011;5827;49.482;7.716;2022-11-15T10:07:25;4.37;;;3.60;;
11541;SDS011;5827;49.482;7.716;2022-11-15T10:09:31;4.73;;;3.77;;
11541;SDS011;5827;49.482;7.716;2022-11-15T10:11:39;4.53;;;3.00;;
11541;SDS011;5827;49.482;7.716;2022-11-15T10:13:43;4.17;;;3.27;;
11541;SDS011;5827;49.482;7.716;2022-11-15T10:15:47;3.57;;;2.90;;
11541;SDS011;5827;49.482;7.716;2022-11-15T10:18:03;2.80;;;2.60;;
11541;SDS011;5827;49.482;7.716;2022-11-15T10:20:12;3.27;;;2.70;;
11541;SDS011;5827;49.482;7.716;2022-11-15T10:22:21;3.23;;;2.93;;
11541;SDS011;5827;49.482;7.716;2022-11-15T10:24:28;3.20;;;2.73;;
11541;SDS011;5827;49.482;7.716;2022-11-15T10:26:36;3.43;;;2.60;;
11541;SDS011;5827;49.482;7.716;2022-11-15T10:28:37;3.63;;;2.70;;
11541;SDS011;5827;49.482;7.716;2022-11-15T10:30:40;3.23;;;2.20;;
11541;SDS011;5827;49.482;7.716;2022-11-15T10:32:44;2.83;;;2.60;;
11541;SDS011;5827;49.482;7.716;2022-11-15T10:34:47;2.37;;;2.17;;
11541;SDS011;5827;49.482;7.716;2022-11-15T10:36:53;4.60;;;2.60;;
11541;SDS011;5827;49.482;7.716;2022-11-15T10:38:57;2.47;;;2.10;;
11541;SDS011;5827;49.482;7.716;2022-11-15T10:41:06;2.40;;;2.00;;
11541;SDS011;5827;49.482;7.716;2022-11-15T10:43:17;2.70;;;2.30;;
11541;SDS011;5827;49.482;7.716;2022-11-15T10:45:24;2.97;;;2.00;;
11541;SDS011;5827;49.482;7.716;2022-11-15T10:47:28;3.33;;;2.10;;
11541;SDS011;5827;49.482;7.716;2022-11-15T10:49:31;2.30;;;2.03;;
11541;SDS011;5827;49.482;7.716;2022-11-15T10:51:33;3.23;;;2.90;;
11541;SDS011;5827;49.482;7.716;2022-11-15T10:53:43;4.00;;;3.00;;
11541;SDS011;5827;49.482;7.716;2022-11-15T10:55:47;4.27;;;2.53;;
11541;SDS011;5827;49.482;7.716;2022-11-15T10:57:51;4.43;;;3.50;;
11541;SDS011;5827;49.482;7.716;2022-11-15T10:59:56;2.40;;;2.20;;
11541;SDS011;5827;49.482;7.716;2022-11-15T11:01:59;2.47;;;1.80;;
11541;SDS011;5827;49.482;7.716;2022-11-15T11:04:02;3.30;;;2.00;;
11541;SDS011;5827;49.482;7.716;2022-11-15T11:06:07;1.60;;;1.50;;
11541;SDS011;5827;49.482;7.716;2022-11-15T11:08:20;2.50;;;1.70;;
11541;SDS011;5827;49.482;7.716;2022-11-15T11:10:24;2.00;;;1.80;;
11541;SDS011;5827;49.482;7.716;2022-11-15T11:12:29;2.57;;;1.80;;
11541;SDS011;5827;49.482;7.716;2022-11-15T11:14:33;4.33;;;1.77;;
11541;SDS011;5827;49.482;7.716;2022-11-15T11:16:43;3.30;;;1.77;;
11541;SDS011;5827;49.482;7.716;2022-11-15T11:18:52;3.77;;;2.07;;
11541;SDS011;5827;49.482;7.716;2022-11-15T11:21:04;2.13;;;1.77;;
11541;SDS011;5827;49.482;7.716;2022-11-15T11:23:21;1.80;;;1.50;;
11541;SDS011;5827;49.482;7.716;2022-11-15T11:25:40;1.87;;;1.77;;
11541;SDS011;5827;49.482;7.716;2022-11-15T11:27:54;1.97;;;1.60;;
11541;SDS011;5827;49.482;7.716;2022-11-15T11:30:08;1.73;;;1.60;;
11541;SDS011;5827;49.482;7.716;2022-11-15T11:32:26;1.90;;;1.70;;
11541;SDS011;5827;49.482;7.716;2022-11-15T11:34:41;2.93;;;1.43;;
11541;SDS011;5827;49.482;7.716;2022-11-15T11:36:52;3.50;;;1.60;;
11541;SDS011;5827;49.482;7.716;2022-11-15T11:39:09;1.50;;;1.40;;
11541;SDS011;5827;49.482;7.716;2022-11-15T11:41:26;2.17;;;1.50;;
11541;SDS011;5827;49.482;7.716;2022-11-15T11:43:41;1.60;;;1.50;;
11541;SDS011;5827;49.482;7.716;2022-11-15T11:45:57;1.57;;;1.43;;
11541;SDS011;5827;49.482;7.716;2022-11-15T11:48:11;1.40;;;1.30;;
11541;SDS011;5827;49.482;7.716;2022-11-15T11:50:15;1.40;;;1.10;;
11541;SDS011;5827;49.482;7.716;2022-11-15T11:52:22;5.50;;;1.40;;
11541;SDS011;5827;49.482;7.716;2022-11-15T11:54:29;2.10;;;1.20;;
11541;SDS011;5827;49.482;7.716;2022-11-15T11:56:39;1.70;;;1.60;;
11541;SDS011;5827;49.482;7.716;2022-11-15T11:58:43;1.40;;;1.30;;
11541;SDS011;5827;49.482;7.716;2022-11-15T12:00:49;1.53;;;1.20;;
11541;SDS011;5827;49.482;7.716;2022-11-15T12:02:59;1.30;;;1.20;;
11541;SDS011;5827;49.482;7.716;2022-11-15T12:05:13;1.20;;;1.20;;
11541;SDS011;5827;49.482;7.716;2022-11-15T12:07:20;1.40;;;1.30;;
11541;SDS011;5827;49.482;7.716;2022-11-15T12:09:27;2.23;;;1.20;;
11541;SDS011;5827;49.482;7.716;2022-11-15T12:11:43;1.63;;;1.03;;
11541;SDS011;5827;49.482;7.716;2022-11-15T12:13:53;1.63;;;1.40;;
11541;SDS011;5827;49.482;7.716;2022-11-15T12:16:00;1.77;;;1.67;;
11541;SDS011;5827;49.482;7.716;2022-11-15T12:18:07;1.40;;;1.10;;
11541;SDS011;5827;49.482;7.716;2022-11-15T12:20:16;1.50;;;1.40;;
11541;SDS011;5827;49.482;7.716;2022-11-15T12:22:20;1.40;;;1.30;;
11541;SDS011;5827;49.482;7.716;2022-11-15T12:24:25;2.00;;;1.50;;
11541;SDS011;5827;49.482;7.716;2022-11-15T12:26:31;1.33;;;1.23;;
11541;SDS011;5827;49.482;7.716;2022-11-15T12:28:37;1.57;;;1.47;;
11541;SDS011;5827;49.482;7.716;2022-11-15T12:30:43;1.30;;;1.20;;
11541;SDS011;5827;49.482;7.716;2022-11-15T12:32:49;1.30;;;1.20;;
11541;SDS011;5827;49.482;7.716;2022-11-15T12:34:53;1.20;;;1.20;;
11541;SDS011;5827;49.482;7.716;2022-11-15T12:36:57;1.33;;;1.10;;
11541;SDS011;5827;49.482;7.716;2022-11-15T12:38:59;1.10;;;1.10;;
11541;SDS011;5827;49.482;7.716;2022-11-15T12:41:12;1.70;;;1.60;;
11541;SDS011;5827;49.482;7.716;2022-11-15T12:45:40;1.50;;;1.40;;
11541;SDS011;5827;49.482;7.716;2022-11-15T12:47:43;2.13;;;1.23;;
11541;SDS011;5827;49.482;7.716;2022-11-15T12:49:45;1.87;;;1.40;;